createdAt,value
2022-10-16T00:01:12.002Z,3.03
2022-10-16T00:03:40.822Z,3.40
2022-10-16T00:06:10.203Z,3.97
2022-10-16T00:08:39.517Z,4.20
2022-10-16T00:11:09.521Z,3.70
2022-10-16T00:13:38.808Z,3.90
2022-10-16T00:16:07.791Z,4.00
2022-10-16T00:18:38.108Z,4.37
2022-10-16T00:21:08.029Z,4.30
2022-10-16T00:23:36.331Z,4.63
2022-10-16T00:26:07.204Z,3.93
2022-10-16T00:28:35.836Z,3.83
2022-10-16T00:31:05.728Z,3.50
2022-10-16T00:33:33.779Z,4.00
2022-10-16T00:36:03.762Z,4.53
2022-10-16T00:38:32.106Z,4.10
2022-10-16T00:41:00.207Z,4.30
2022-10-16T00:43:47.281Z,4.00
2022-10-16T00:46:23.635Z,4.50
2022-10-16T00:48:57.546Z,3.77
2022-10-16T00:51:33.385Z,3.97
2022-10-16T00:54:01.890Z,4.53
2022-10-16T00:56:30.086Z,4.07
2022-10-16T00:58:58.159Z,4.00
2022-10-16T01:01:26.456Z,3.83
2022-10-16T01:03:54.724Z,3.83
2022-10-16T01:06:34.129Z,3.90
2022-10-16T01:09:14.467Z,3.47
2022-10-16T01:11:51.026Z,3.83
2022-10-16T01:14:25.699Z,3.17
2022-10-16T01:16:59.065Z,2.97
2022-10-16T01:19:41.056Z,3.37
2022-10-16T01:22:12.077Z,3.23
2022-10-16T01:24:43.000Z,3.13
2022-10-16T01:27:14.350Z,2.70
2022-10-16T01:29:51.214Z,2.60
2022-10-16T01:32:24.158Z,2.70
2022-10-16T01:34:54.891Z,2.93
2022-10-16T01:37:31.787Z,2.77
2022-10-16T01:40:02.873Z,3.00
2022-10-16T01:42:37.113Z,2.80
2022-10-16T01:45:08.915Z,3.00
2022-10-16T01:47:38.599Z,2.77
2022-10-16T01:50:08.790Z,3.10
2022-10-16T01:52:40.908Z,2.90
2022-10-16T01:55:12.300Z,3.13
2022-10-16T01:57:47.137Z,3.43
2022-10-16T02:00:18.981Z,3.07
2022-10-16T02:02:51.935Z,4.13
2022-10-16T02:05:27.477Z,3.43
2022-10-16T02:07:56.602Z,4.00
2022-10-16T02:10:26.159Z,3.57
2022-10-16T02:13:00.862Z,3.87
2022-10-16T02:15:28.957Z,3.87
2022-10-16T02:17:57.069Z,4.17
2022-10-16T02:20:32.287Z,4.20
2022-10-16T02:23:01.701Z,4.07
2022-10-16T02:25:33.648Z,4.90
2022-10-16T02:28:07.667Z,5.00
2022-10-16T02:30:40.287Z,4.87
2022-10-16T02:33:11.758Z,5.17
2022-10-16T02:35:40.588Z,4.43
2022-10-16T02:40:39.242Z,5.13
2022-10-16T02:43:10.102Z,5.23
2022-10-16T02:45:38.305Z,4.90
2022-10-16T02:48:06.923Z,5.10
2022-10-16T02:50:35.055Z,4.73
2022-10-16T02:53:03.419Z,4.80
2022-10-16T02:55:31.482Z,4.60
2022-10-16T02:57:59.575Z,3.60
2022-10-16T03:00:29.538Z,3.80
2022-10-16T03:02:57.706Z,4.03
2022-10-16T03:05:25.800Z,3.77
2022-10-16T03:07:54.653Z,3.50
2022-10-16T03:10:22.695Z,3.50
2022-10-16T03:12:50.767Z,3.80
2022-10-16T03:15:18.865Z,4.43
2022-10-16T03:17:48.311Z,5.27
2022-10-16T03:20:16.466Z,5.93
2022-10-16T03:22:44.710Z,6.20
2022-10-16T03:25:12.778Z,5.10
2022-10-16T03:27:40.873Z,4.60
2022-10-16T03:30:10.407Z,4.27
2022-10-16T03:32:38.495Z,4.53
2022-10-16T03:35:08.924Z,3.90
2022-10-16T03:37:37.211Z,3.70
2022-10-16T03:40:05.859Z,3.80
2022-10-16T03:42:33.922Z,3.70
2022-10-16T03:45:02.491Z,4.90
2022-10-16T03:47:30.521Z,4.80
2022-10-16T03:49:58.586Z,4.70
2022-10-16T03:52:28.177Z,5.07
2022-10-16T03:54:56.356Z,4.40
2022-10-16T03:57:24.724Z,4.13
2022-10-16T03:59:53.074Z,4.27
2022-10-16T04:02:21.188Z,3.13
2022-10-16T04:04:49.258Z,3.30
2022-10-16T04:07:17.379Z,3.30
2022-10-16T04:09:46.805Z,3.50
2022-10-16T04:12:14.927Z,4.70
2022-10-16T04:14:42.950Z,4.60
2022-10-16T04:17:11.027Z,5.00
2022-10-16T04:19:39.084Z,4.87
2022-10-16T04:22:07.166Z,5.27
2022-10-16T04:24:35.206Z,4.70
2022-10-16T04:27:04.824Z,4.70
2022-10-16T04:29:32.860Z,5.20
2022-10-16T04:32:00.942Z,5.23
2022-10-16T04:34:28.997Z,5.30
2022-10-16T04:36:57.086Z,5.50
2022-10-16T04:39:25.191Z,5.07
2022-10-16T04:41:53.293Z,4.63
2022-10-16T04:44:22.710Z,5.00
2022-10-16T04:46:53.098Z,5.93
2022-10-16T04:49:21.206Z,5.70
2022-10-16T04:51:49.332Z,4.17
2022-10-16T04:54:17.392Z,5.13
2022-10-16T04:56:48.381Z,5.20
2022-10-16T04:59:16.927Z,5.20
2022-10-16T05:01:47.169Z,4.60
2022-10-16T05:04:16.361Z,5.00
2022-10-16T05:06:44.618Z,4.57
2022-10-16T05:09:12.884Z,4.47
2022-10-16T05:11:40.965Z,4.70
2022-10-16T05:14:09.005Z,3.60
2022-10-16T05:16:37.089Z,3.33
2022-10-16T05:21:54.761Z,3.10
2022-10-16T05:24:22.869Z,3.43
2022-10-16T05:26:51.753Z,3.70
2022-10-16T05:29:19.888Z,3.57
2022-10-16T05:31:47.979Z,4.03
2022-10-16T05:34:17.382Z,4.00
2022-10-16T05:36:46.293Z,3.93
2022-10-16T05:39:15.922Z,3.90
2022-10-16T05:41:44.285Z,4.47
2022-10-16T05:44:12.819Z,4.20
2022-10-16T05:46:40.901Z,5.30
2022-10-16T05:49:08.965Z,4.53
2022-10-16T05:51:40.734Z,4.70
2022-10-16T05:54:08.846Z,4.90
2022-10-16T05:56:36.974Z,3.90
2022-10-16T05:59:06.293Z,5.00
2022-10-16T06:01:35.020Z,4.67
2022-10-16T06:04:03.349Z,4.50
2022-10-16T06:06:31.995Z,4.77
2022-10-16T06:09:01.450Z,5.40
2022-10-16T06:11:32.297Z,5.77
2022-10-16T06:14:03.601Z,6.70
2022-10-16T06:16:31.877Z,7.17
2022-10-16T06:19:00.854Z,5.53
2022-10-16T06:21:30.869Z,6.30
2022-10-16T06:24:00.955Z,5.53
2022-10-16T06:26:30.689Z,6.57
2022-10-16T06:29:00.293Z,5.70
2022-10-16T06:31:32.240Z,5.67
2022-10-16T06:34:00.409Z,5.30
2022-10-16T06:36:28.686Z,5.73
2022-10-16T06:38:56.786Z,5.67
2022-10-16T06:41:26.278Z,5.07
2022-10-16T06:43:54.370Z,4.87
2022-10-16T06:46:24.787Z,6.37
2022-10-16T06:48:53.069Z,5.73
2022-10-16T06:51:23.236Z,6.47
2022-10-16T06:54:08.169Z,5.97
2022-10-16T06:56:38.896Z,5.10
2022-10-16T06:59:06.999Z,5.30
2022-10-16T07:01:35.427Z,4.97
2022-10-16T07:04:04.170Z,5.20
2022-10-16T07:06:35.121Z,5.10
2022-10-16T07:09:06.158Z,4.97
2022-10-16T07:11:35.112Z,5.00
2022-10-16T07:14:04.784Z,5.30
2022-10-16T07:16:34.138Z,4.57
2022-10-16T07:19:05.637Z,4.50
2022-10-16T07:21:37.203Z,4.67
2022-10-16T07:24:07.316Z,5.03
2022-10-16T07:26:37.811Z,4.50
2022-10-16T07:29:07.382Z,5.60
2022-10-16T07:31:35.554Z,5.60
2022-10-16T07:34:03.651Z,6.27
2022-10-16T07:36:31.808Z,4.90
2022-10-16T07:39:00.476Z,7.50
2022-10-16T07:41:29.453Z,9.00
2022-10-16T07:44:01.328Z,6.33
2022-10-16T07:46:31.054Z,4.93
2022-10-16T07:48:59.139Z,4.30
2022-10-16T07:51:28.549Z,6.20
2022-10-16T07:53:56.797Z,4.60
2022-10-16T07:56:24.904Z,3.83
2022-10-16T07:58:53.514Z,4.00
2022-10-16T08:01:21.871Z,4.27
2022-10-16T08:03:53.119Z,3.43
2022-10-16T08:06:26.667Z,3.67
2022-10-16T08:08:56.604Z,3.00
2022-10-16T08:11:25.251Z,3.37
2022-10-16T08:13:53.325Z,2.90
2022-10-16T08:16:21.573Z,3.67
2022-10-16T08:18:52.445Z,3.37
2022-10-16T08:21:24.941Z,3.43
2022-10-16T08:23:57.294Z,3.70
2022-10-16T08:26:28.016Z,4.53
2022-10-16T08:28:56.550Z,4.07
2022-10-16T08:31:25.339Z,4.03
2022-10-16T08:33:54.847Z,3.67
2022-10-16T08:36:23.046Z,4.20
2022-10-16T08:38:54.523Z,4.77
2022-10-16T08:41:59.337Z,4.37
2022-10-16T08:44:39.399Z,5.50
2022-10-16T08:47:15.119Z,4.50
2022-10-16T08:49:52.614Z,3.40
2022-10-16T08:52:20.725Z,6.07
2022-10-16T08:54:52.785Z,4.03
2022-10-16T08:57:24.585Z,3.67
2022-10-16T08:59:55.684Z,3.87
2022-10-16T09:02:31.125Z,3.50
2022-10-16T09:05:23.941Z,3.70
2022-10-16T09:08:04.630Z,4.07
2022-10-16T09:10:45.850Z,3.30
2022-10-16T09:13:24.545Z,3.37
2022-10-16T09:16:01.016Z,3.53
2022-10-16T09:18:36.446Z,3.50
2022-10-16T09:21:12.209Z,8.10
2022-10-16T09:23:40.577Z,4.90
2022-10-16T09:26:13.896Z,3.60
2022-10-16T09:28:42.361Z,3.20
2022-10-16T09:31:17.428Z,3.43
2022-10-16T09:33:49.309Z,4.30
2022-10-16T09:36:19.756Z,4.33
2022-10-16T09:38:48.087Z,2.90
2022-10-16T09:41:26.290Z,2.97
2022-10-16T09:43:57.952Z,3.40
2022-10-16T09:46:31.022Z,3.60
2022-10-16T09:49:01.383Z,4.13
2022-10-16T09:51:32.702Z,4.37
2022-10-16T09:54:02.480Z,3.73
2022-10-16T09:56:33.486Z,3.63
2022-10-16T09:59:06.183Z,4.17
2022-10-16T10:01:39.621Z,4.20
2022-10-16T10:04:08.790Z,3.60
2022-10-16T10:06:45.270Z,3.53
2022-10-16T10:09:25.517Z,3.50
2022-10-16T10:11:56.431Z,3.27
2022-10-16T10:14:30.945Z,3.40
2022-10-16T10:17:14.138Z,3.00
2022-10-16T10:19:45.839Z,2.87
2022-10-16T10:22:29.374Z,3.40
2022-10-16T10:25:23.095Z,2.87
2022-10-16T10:28:13.026Z,3.37
2022-10-16T10:30:46.349Z,3.23
2022-10-16T10:33:25.400Z,2.60
2022-10-16T10:36:00.188Z,2.70
2022-10-16T10:38:42.011Z,3.07
2022-10-16T10:41:32.146Z,2.90
2022-10-16T10:44:08.480Z,3.13
2022-10-16T10:46:43.415Z,2.90
2022-10-16T10:49:41.729Z,3.17
2022-10-16T10:52:26.341Z,3.43
2022-10-16T10:55:04.362Z,4.30
2022-10-16T10:57:40.136Z,4.23
2022-10-16T11:00:20.659Z,3.90
2022-10-16T11:02:53.187Z,4.30
2022-10-16T11:05:33.210Z,4.37
2022-10-16T11:08:04.476Z,4.53
2022-10-16T11:10:42.534Z,5.10
2022-10-16T11:13:22.533Z,5.00
2022-10-16T11:15:57.740Z,4.50
2022-10-16T11:18:36.241Z,5.00
2022-10-16T11:21:08.536Z,4.77
2022-10-16T11:23:44.907Z,4.60
2022-10-16T11:26:20.890Z,4.50
2022-10-16T11:28:51.815Z,5.20
2022-10-16T11:31:26.967Z,4.03
2022-10-16T11:36:42.098Z,3.73
2022-10-16T11:39:21.485Z,3.73
2022-10-16T11:41:53.674Z,3.67
2022-10-16T11:44:44.758Z,3.70
2022-10-16T11:47:54.006Z,2.77
2022-10-16T11:50:24.950Z,3.60
2022-10-16T11:53:02.670Z,3.60
2022-10-16T11:55:36.427Z,3.13
2022-10-16T11:58:09.836Z,3.10
2022-10-16T12:00:43.278Z,2.93
2022-10-16T12:03:20.301Z,3.00
2022-10-16T12:06:14.691Z,3.50
2022-10-16T12:08:44.572Z,3.03
2022-10-16T12:11:26.208Z,2.83
2022-10-16T12:14:20.306Z,3.70
2022-10-16T12:16:56.941Z,2.80
2022-10-16T12:19:27.606Z,2.80
2022-10-16T12:21:58.845Z,3.27
2022-10-16T12:24:37.600Z,3.43
2022-10-16T12:27:07.739Z,3.67
2022-10-16T12:29:39.843Z,3.53
2022-10-16T12:35:22.485Z,3.20
2022-10-16T12:37:51.513Z,3.37
2022-10-16T12:40:30.085Z,3.57
2022-10-16T12:42:58.214Z,4.00
2022-10-16T12:45:33.196Z,3.50
2022-10-16T12:48:03.069Z,2.70
2022-10-16T12:50:36.493Z,2.40
2022-10-16T12:53:18.804Z,2.47
2022-10-16T12:55:55.492Z,2.13
2022-10-16T12:58:50.262Z,2.53
2022-10-16T13:01:30.749Z,2.40
2022-10-16T13:04:21.727Z,2.43
2022-10-16T13:06:58.265Z,2.10
2022-10-16T13:09:45.046Z,2.33
2022-10-16T13:12:27.474Z,2.43
2022-10-16T13:15:24.314Z,2.67
2022-10-16T13:18:02.551Z,2.40
2022-10-16T13:20:36.864Z,2.63
2022-10-16T13:23:15.585Z,2.20
2022-10-16T13:25:57.851Z,2.00
2022-10-16T13:28:32.237Z,2.08
2022-10-16T13:31:02.976Z,1.60
2022-10-16T13:33:35.796Z,1.92
2022-10-16T13:36:05.105Z,1.70
2022-10-16T13:38:35.389Z,2.30
2022-10-16T13:41:05.263Z,1.73
2022-10-16T13:43:36.466Z,2.20
2022-10-16T13:46:07.625Z,2.10
2022-10-16T13:48:37.112Z,1.60
2022-10-16T13:51:14.261Z,1.77
2022-10-16T13:53:43.030Z,1.83
2022-10-16T13:56:14.270Z,1.70
2022-10-16T13:58:43.066Z,3.23
2022-10-16T14:01:20.480Z,1.90
2022-10-16T14:03:51.486Z,2.00
2022-10-16T14:06:23.077Z,2.20
2022-10-16T14:08:55.509Z,1.80
2022-10-16T14:11:25.254Z,2.00
2022-10-16T14:13:54.037Z,2.17
2022-10-16T14:16:24.097Z,2.10
2022-10-16T14:18:59.371Z,1.90
2022-10-16T14:21:28.102Z,1.80
2022-10-16T14:23:57.000Z,2.60
2022-10-16T14:26:27.702Z,2.20
2022-10-16T14:29:13.042Z,2.33
2022-10-16T14:31:41.729Z,2.30
2022-10-16T14:34:28.452Z,2.10
2022-10-16T14:36:57.257Z,0.30
2022-10-16T14:39:27.760Z,1.83
2022-10-16T14:41:59.082Z,2.10
2022-10-16T14:44:31.774Z,2.40
2022-10-16T14:47:01.722Z,0.40
2022-10-16T14:49:32.847Z,0.83
2022-10-16T14:52:00.974Z,2.60
2022-10-16T14:54:31.295Z,1.87
2022-10-16T14:57:00.655Z,2.77
2022-10-16T14:59:34.354Z,2.27
2022-10-16T15:02:08.778Z,2.00
2022-10-16T15:04:38.294Z,2.10
2022-10-16T15:07:06.494Z,2.27
2022-10-16T15:09:34.570Z,2.60
2022-10-16T15:12:02.752Z,2.40
2022-10-16T15:14:30.898Z,2.77
2022-10-16T15:16:59.614Z,2.90
2022-10-16T15:19:27.787Z,2.50
2022-10-16T15:21:57.321Z,2.47
2022-10-16T15:24:25.440Z,2.43
2022-10-16T15:26:53.509Z,2.93
2022-10-16T15:29:21.708Z,3.10
2022-10-16T15:31:49.801Z,2.73
2022-10-16T15:34:20.121Z,3.37
2022-10-16T15:36:48.222Z,3.50
2022-10-16T15:39:19.161Z,3.00
2022-10-16T15:41:51.555Z,2.83
2022-10-16T15:44:19.861Z,3.37
2022-10-16T15:46:47.981Z,3.30
2022-10-16T15:49:16.121Z,2.83
2022-10-16T15:51:44.325Z,3.10
2022-10-16T15:54:12.412Z,2.90
2022-10-16T15:56:41.829Z,3.07
2022-10-16T15:59:09.929Z,3.20
2022-10-16T16:01:40.220Z,3.17
2022-10-16T16:04:20.103Z,2.80
2022-10-16T16:06:59.234Z,3.20
2022-10-16T16:09:27.387Z,3.10
2022-10-16T16:11:57.209Z,3.00
2022-10-16T16:14:27.209Z,2.90
2022-10-16T16:16:55.868Z,3.00
2022-10-16T16:19:24.372Z,3.53
2022-10-16T16:21:52.826Z,3.00
2022-10-16T16:24:23.087Z,3.57
2022-10-16T16:26:51.374Z,3.70
2022-10-16T16:29:21.678Z,3.30
2022-10-16T16:31:50.357Z,3.63
2022-10-16T16:34:19.924Z,3.90
2022-10-16T16:36:48.568Z,3.13
2022-10-16T16:39:17.391Z,3.93
2022-10-16T16:41:46.916Z,3.70
2022-10-16T16:44:16.516Z,3.43
2022-10-16T16:46:47.256Z,3.40
2022-10-16T16:49:16.639Z,3.83
2022-10-16T16:51:44.881Z,3.60
2022-10-16T16:54:14.886Z,4.33
2022-10-16T16:56:44.065Z,4.20
2022-10-16T16:59:16.314Z,4.57
2022-10-16T17:01:46.288Z,4.27
2022-10-16T17:04:16.136Z,3.70
2022-10-16T17:06:44.711Z,5.13
2022-10-16T17:09:16.311Z,4.97
2022-10-16T17:11:45.639Z,5.23
2022-10-16T17:14:14.323Z,5.13
2022-10-16T17:16:44.713Z,5.77
2022-10-16T17:19:16.447Z,5.17
2022-10-16T17:21:45.474Z,4.87
2022-10-16T17:24:13.739Z,5.83
2022-10-16T17:26:44.586Z,6.07
2022-10-16T17:29:14.159Z,5.80
2022-10-16T17:31:42.746Z,5.60
2022-10-16T17:34:12.776Z,5.93
2022-10-16T17:36:46.868Z,6.13
2022-10-16T17:39:18.200Z,6.70
2022-10-16T17:41:46.938Z,7.07
2022-10-16T17:44:19.919Z,6.33
2022-10-16T17:46:49.145Z,6.90
2022-10-16T17:49:17.355Z,6.10
2022-10-16T17:51:47.075Z,6.80
2022-10-16T17:54:15.603Z,6.50
2022-10-16T17:56:43.752Z,7.33
2022-10-16T17:59:13.351Z,6.37
2022-10-16T18:01:42.202Z,6.67
2022-10-16T18:04:13.122Z,6.77
2022-10-16T18:06:42.867Z,5.80
2022-10-16T18:09:15.127Z,6.30
2022-10-16T18:11:43.296Z,6.20
2022-10-16T18:14:14.891Z,6.33
2022-10-16T18:16:43.399Z,6.37
2022-10-16T18:19:11.766Z,5.70
2022-10-16T18:21:39.857Z,6.47
2022-10-16T18:24:08.254Z,5.50
2022-10-16T18:26:37.726Z,6.17
2022-10-16T18:29:06.180Z,6.27
2022-10-16T18:31:35.793Z,6.50
2022-10-16T18:34:06.373Z,6.47
2022-10-16T18:36:36.424Z,6.87
2022-10-16T18:39:09.448Z,6.50
2022-10-16T18:41:39.696Z,6.60
2022-10-16T18:44:10.644Z,6.37
2022-10-16T18:46:38.994Z,6.60
2022-10-16T18:49:07.331Z,6.47
2022-10-16T18:51:36.848Z,5.87
2022-10-16T18:54:08.281Z,5.93
2022-10-16T18:56:37.019Z,6.27
2022-10-16T18:59:08.742Z,6.23
2022-10-16T19:01:39.448Z,6.23
2022-10-16T19:04:09.293Z,6.30
2022-10-16T19:06:39.187Z,5.60
2022-10-16T19:09:08.548Z,6.67
2022-10-16T19:11:41.386Z,5.70
2022-10-16T19:14:11.949Z,6.23
2022-10-16T19:16:42.851Z,6.30
2022-10-16T19:19:14.506Z,6.47
2022-10-16T19:21:43.495Z,5.97
2022-10-16T19:24:14.411Z,5.63
2022-10-16T19:26:42.586Z,7.53
2022-10-16T19:29:12.147Z,5.67
2022-10-16T19:31:40.538Z,6.30
2022-10-16T19:34:09.832Z,5.93
2022-10-16T19:36:39.485Z,6.13
2022-10-16T19:39:09.755Z,5.90
2022-10-16T19:41:38.657Z,5.93
2022-10-16T19:44:08.316Z,5.27
2022-10-16T19:46:38.031Z,5.40
2022-10-16T19:49:08.015Z,5.83
2022-10-16T19:51:36.791Z,6.20
2022-10-16T19:54:07.067Z,5.80
2022-10-16T19:56:36.278Z,5.03
2022-10-16T19:59:05.760Z,4.80
2022-10-16T20:01:34.330Z,5.70
2022-10-16T20:04:03.845Z,5.83
2022-10-16T20:06:32.147Z,5.27
2022-10-16T20:09:00.277Z,6.20
2022-10-16T20:11:30.502Z,6.33
2022-10-16T20:13:59.006Z,5.70
2022-10-16T20:16:28.054Z,5.03
2022-10-16T20:18:56.422Z,4.77
2022-10-16T20:21:28.742Z,4.77
2022-10-16T20:23:56.986Z,5.13
2022-10-16T20:26:27.170Z,4.47
2022-10-16T20:28:55.843Z,5.33
2022-10-16T20:31:26.672Z,4.47
2022-10-16T20:33:57.638Z,5.43
2022-10-16T20:36:30.589Z,4.87
2022-10-16T20:38:59.205Z,4.93
2022-10-16T20:41:27.349Z,5.03
2022-10-16T20:43:56.117Z,5.20
2022-10-16T20:46:25.943Z,5.13
2022-10-16T20:48:55.172Z,5.30
2022-10-16T20:51:27.794Z,5.63
2022-10-16T20:53:57.980Z,6.27
2022-10-16T20:56:27.587Z,5.43
2022-10-16T20:58:55.741Z,5.87
2022-10-16T21:01:27.013Z,5.80
2022-10-16T21:03:56.436Z,5.60
2022-10-16T21:06:26.787Z,5.07
2022-10-16T21:08:55.163Z,5.60
2022-10-16T21:11:25.309Z,5.13
2022-10-16T21:13:54.610Z,5.60
2022-10-16T21:16:22.738Z,4.70
2022-10-16T21:18:51.476Z,5.03
2022-10-16T21:21:24.571Z,5.03
2022-10-16T21:23:54.620Z,5.00
2022-10-16T21:26:26.322Z,4.47
2022-10-16T21:28:55.150Z,4.50
2022-10-16T21:31:23.530Z,4.63
2022-10-16T21:33:52.915Z,4.70
2022-10-16T21:36:23.065Z,4.80
2022-10-16T21:38:53.492Z,4.43
2022-10-16T21:41:23.802Z,5.20
2022-10-16T21:43:52.434Z,5.63
2022-10-16T21:46:23.853Z,5.30
2022-10-16T21:48:54.245Z,5.50
2022-10-16T21:51:26.832Z,5.83
2022-10-16T21:53:57.429Z,5.20
2022-10-16T21:56:26.140Z,5.27
2022-10-16T21:58:54.979Z,5.43
2022-10-16T22:01:25.977Z,5.63
2022-10-16T22:03:54.874Z,6.33
2022-10-16T22:06:27.008Z,5.30
2022-10-16T22:09:00.132Z,5.00
2022-10-16T22:11:31.574Z,5.00
2022-10-16T22:14:00.374Z,5.50
2022-10-16T22:16:28.595Z,5.77
2022-10-16T22:18:58.436Z,5.63
2022-10-16T22:21:28.355Z,5.30
2022-10-16T22:23:59.095Z,5.37
2022-10-16T22:26:28.002Z,5.30
2022-10-16T22:28:56.727Z,4.87
2022-10-16T22:31:25.246Z,5.10
2022-10-16T22:33:56.178Z,5.10
2022-10-16T22:36:24.419Z,5.00
2022-10-16T22:38:53.556Z,5.47
2022-10-16T22:41:24.804Z,5.90
2022-10-16T22:43:53.802Z,5.20
2022-10-16T22:46:23.993Z,5.33
2022-10-16T22:48:52.743Z,5.30
2022-10-16T22:51:21.993Z,5.53
2022-10-16T22:53:51.674Z,6.50
2022-10-16T22:56:23.469Z,5.30
2022-10-16T22:58:51.726Z,5.00
2022-10-16T23:01:23.395Z,5.53
2022-10-16T23:03:51.865Z,5.30
2022-10-16T23:06:20.433Z,5.63
2022-10-16T23:08:53.806Z,5.37
2022-10-16T23:11:24.194Z,5.87
2022-10-16T23:13:52.566Z,5.83
2022-10-16T23:16:22.973Z,5.17
2022-10-16T23:18:51.593Z,5.37
2022-10-16T23:21:21.974Z,5.07
2022-10-16T23:23:51.224Z,5.00
2022-10-16T23:26:21.521Z,5.60
2022-10-16T23:28:51.489Z,5.43
2022-10-16T23:31:20.644Z,5.57
2022-10-16T23:33:48.857Z,5.83
2022-10-16T23:36:19.623Z,5.70
2022-10-16T23:38:48.597Z,5.37
2022-10-16T23:41:17.370Z,6.47
2022-10-16T23:43:45.734Z,5.47
2022-10-16T23:46:16.221Z,5.83
2022-10-16T23:48:44.303Z,5.47
2022-10-16T23:51:13.106Z,5.67
2022-10-16T23:53:41.450Z,5.67
2022-10-16T23:56:10.321Z,5.13
2022-10-16T23:58:38.479Z,4.90
